Time;durP1;ratioP1;P1;durP2;ratioP2;P2;SDS_P1;SDS_P2;PMS_P1;PMS_P2;Temp;Humidity;BMP_temperature;BMP_pressure;BME280_temperature;BME280_humidity;BME280_pressure;Samples;Min_cycle;Max_cycle;Signal;HPM_P1;HPM_P2
2022/03/03 00:00:16;;;;;;;83.53;42.22;;;;;;;1.43;89.98;102264.69;5023418;28;20067;-65
2022/03/03 00:02:42;;;;;;;73.43;37.30;;;;;;;1.41;89.77;102269.88;5022863;28;20710;-65
2022/03/03 00:05:09;;;;;;;82.78;41.88;;;;;;;1.40;89.77;102278.56;5023638;28;20032;-65
2022/03/03 00:07:35;;;;;;;87.22;42.90;;;;;;;1.37;89.73;102275.91;5022533;28;21754;-65
2022/03/03 00:10:01;;;;;;;83.63;42.00;;;;;;;1.35;89.78;102275.88;5021792;28;20037;-65
2022/03/03 00:12:27;;;;;;;83.10;41.58;;;;;;;1.33;90.02;102274.09;5023629;28;20025;-65
2022/03/03 00:14:52;;;;;;;81.25;40.40;;;;;;;1.30;90.12;102274.94;5023123;28;20025;-65
2022/03/03 00:17:18;;;;;;;85.13;43.35;;;;;;;1.29;90.05;102267.06;5023128;28;20029;-65
2022/03/03 00:19:45;;;;;;;88.32;42.65;;;;;;;1.27;90.27;102264.44;5023091;28;20122;-65
2022/03/03 00:22:11;;;;;;;87.30;43.00;;;;;;;1.26;90.35;102267.03;5022817;28;20292;-65
2022/03/03 00:24:36;;;;;;;87.05;42.95;;;;;;;1.25;90.20;102258.31;5022150;28;21897;-65
2022/03/03 00:27:02;;;;;;;87.68;43.78;;;;;;;1.24;90.05;102260.91;5023257;28;20048;-65
2022/03/03 00:29:28;;;;;;;86.40;42.65;;;;;;;1.21;90.03;102256.53;5023104;28;20021;-65
2022/03/03 00:31:53;;;;;;;89.50;43.10;;;;;;;1.20;90.16;102258.25;5023447;28;20083;-65
2022/03/03 00:34:19;;;;;;;87.68;43.17;;;;;;;1.19;90.29;102248.66;5020026;28;20387;-65
2022/03/03 00:36:44;;;;;;;82.05;41.42;;;;;;;1.17;90.42;102246.88;5023102;28;20033;-65
2022/03/03 00:39:10;;;;;;;86.13;42.63;;;;;;;1.16;90.13;102245.13;5022943;28;20412;-65
2022/03/03 00:41:36;;;;;;;88.15;43.75;;;;;;;1.15;90.30;102239.00;5023557;28;20029;-65
2022/03/03 00:44:01;;;;;;;83.90;42.63;;;;;;;1.13;90.33;102237.25;5022887;28;20303;-65
2022/03/03 00:46:27;;;;;;;89.00;44.08;;;;;;;1.11;90.13;102232.00;5023071;28;20521;-65
2022/03/03 00:48:54;;;;;;;93.60;45.67;;;;;;;1.10;90.56;102231.97;5022300;28;20042;-65
2022/03/03 00:51:23;;;;;;;80.38;40.53;;;;;;;1.08;90.55;102226.72;5023515;28;20128;-65
2022/03/03 00:53:50;;;;;;;94.20;43.65;;;;;;;1.07;90.76;102228.47;5023576;28;20056;-65
2022/03/03 00:56:16;;;;;;;91.93;43.78;;;;;;;1.07;90.61;102230.19;5022862;28;20480;-65
2022/03/03 00:58:42;;;;;;;93.13;45.60;;;;;;;1.05;90.56;102226.69;5022204;28;20590;-65
2022/03/03 01:01:07;;;;;;;94.90;44.22;;;;;;;1.03;90.64;102224.03;5022483;28;20040;-65
2022/03/03 01:03:33;;;;;;;92.75;45.10;;;;;;;1.01;90.77;102220.53;5022608;28;20108;-64
2022/03/03 01:05:58;;;;;;;87.85;43.05;;;;;;;0.98;90.67;102214.41;5022548;28;20059;-64
2022/03/03 01:08:24;;;;;;;95.25;43.80;;;;;;;0.97;91.08;102210.91;5023284;28;20108;-65
2022/03/03 01:10:50;;;;;;;90.20;44.92;;;;;;;0.96;90.94;102216.13;5022988;28;20610;-65
2022/03/03 01:13:16;;;;;;;92.55;45.05;;;;;;;0.92;91.04;102216.03;5022407;28;20045;-64
2022/03/03 01:15:43;;;;;;;87.03;44.17;;;;;;;0.90;91.05;102216.88;5022666;28;20025;-64
2022/03/03 01:18:08;;;;;;;92.45;44.13;;;;;;;0.87;90.83;102209.88;5021860;28;20497;-65
2022/03/03 01:20:34;;;;;;;89.85;45.50;;;;;;;0.86;91.18;102212.47;5022934;28;20132;-65
2022/03/03 01:23:00;;;;;;;93.63;44.25;;;;;;;0.85;91.02;102214.19;5022628;28;20117;-64
2022/03/03 01:25:25;;;;;;;95.45;45.03;;;;;;;0.82;91.31;102214.16;5022523;28;20061;-65
2022/03/03 01:27:51;;;;;;;88.00;43.88;;;;;;;0.81;91.26;102208.03;5021005;28;20037;-65
2022/03/03 01:30:16;;;;;;;89.63;42.85;;;;;;;0.79;91.38;102208.88;5023135;28;20379;-64
2022/03/03 01:32:42;;;;;;;94.07;44.75;;;;;;;0.78;91.14;102205.41;5021811;28;20468;-64
2022/03/03 01:35:08;;;;;;;91.72;44.92;;;;;;;0.77;91.03;102198.41;5022162;28;20392;-65
2022/03/03 01:37:34;;;;;;;92.05;44.97;;;;;;;0.75;91.06;102194.91;5021953;28;20060;-64
2022/03/03 01:39:59;;;;;;;86.40;43.08;;;;;;;0.74;91.34;102187.03;5008778;28;20037;-64
2022/03/03 01:42:25;;;;;;;88.70;43.40;;;;;;;0.73;91.39;102182.69;5022939;28;20492;-65
2022/03/03 01:44:51;;;;;;;99.03;46.15;;;;;;;0.71;91.02;102181.78;5022506;28;21472;-64
2022/03/03 01:47:24;;;;;;;97.32;44.70;;;;;;;0.69;91.55;102173.94;5022040;28;20029;-64
2022/03/03 01:49:52;;;;;;;97.55;46.42;;;;;;;0.70;91.54;102172.22;5022745;28;20264;-65
2022/03/03 01:52:18;;;;;;;92.20;45.22;;;;;;;0.67;91.22;102176.50;5022242;28;20040;-64
2022/03/03 01:54:43;;;;;;;91.07;43.17;;;;;;;0.66;91.66;102177.38;5022505;28;20030;-65
2022/03/03 01:57:09;;;;;;;99.88;45.35;;;;;;;0.65;91.82;102175.59;5021261;28;20046;-64
2022/03/03 01:59:36;;;;;;;90.03;45.00;;;;;;;0.65;91.55;102173.00;5021707;28;20660;-64
2022/03/03 02:02:03;;;;;;;100.72;45.85;;;;;;;0.63;91.59;102169.50;5021858;28;20037;-64
2022/03/03 02:04:29;;;;;;;94.75;45.13;;;;;;;0.61;91.60;102171.19;5022046;28;20506;-64
2022/03/03 02:06:54;;;;;;;99.35;46.15;;;;;;;0.61;91.86;102167.72;5021823;28;20028;-64
2022/03/03 02:09:20;;;;;;;90.93;44.45;;;;;;;0.59;91.46;102159.88;5022400;28;20059;-64
2022/03/03 02:11:48;;;;;;;91.53;45.20;;;;;;;0.58;91.68;102165.03;5022890;28;20045;-64
2022/03/03 02:14:14;;;;;;;98.05;45.17;;;;;;;0.56;91.37;102164.16;5026093;28;20029;-64
2022/03/03 02:16:40;;;;;;;96.25;45.38;;;;;;;0.53;91.43;102159.75;5024737;28;20040;-64
2022/03/03 02:19:06;;;;;;;92.97;43.85;;;;;;;0.51;91.96;102162.34;5023349;28;21569;-64
2022/03/03 02:21:32;;;;;;;93.10;45.30;;;;;;;0.51;91.86;102158.84;5024062;28;20096;-64
2022/03/03 02:23:58;;;;;;;91.93;44.65;;;;;;;0.49;91.77;102160.56;5023563;28;20261;-64
2022/03/03 02:26:24;;;;;;;86.35;44.00;;;;;;;0.48;91.75;102161.41;5022606;28;20040;-65
2022/03/03 02:28:51;;;;;;;96.78;45.92;;;;;;;0.45;91.63;102154.41;5024962;28;20519;-65
2022/03/03 02:31:18;;;;;;;95.85;45.90;;;;;;;0.44;91.87;102151.78;5026111;28;20111;-64
2022/03/03 02:33:44;;;;;;;88.65;43.22;;;;;;;0.44;91.77;102151.78;5025452;28;20025;-64
2022/03/03 02:36:27;;;;;;;93.32;46.20;;;;;;;0.43;91.89;102147.44;5024886;28;21800;-64
2022/03/03 02:38:54;;;;;;;94.00;44.78;;;;;;;0.40;91.94;102146.50;5025246;28;20076;-64
2022/03/03 02:41:21;;;;;;;92.55;44.85;;;;;;;0.38;91.75;102136.94;5023415;28;20472;-64
2022/03/03 02:43:46;;;;;;;91.35;43.90;;;;;;;0.38;91.91;102136.94;5022392;28;20033;-64
2022/03/03 02:46:13;;;;;;;95.22;44.90;;;;;;;0.36;91.68;102131.69;5024746;28;20049;-64
2022/03/03 02:48:38;;;;;;;92.72;44.22;;;;;;;0.35;92.10;102129.03;5025199;28;20495;-64
2022/03/03 02:51:04;;;;;;;92.63;43.70;;;;;;;0.34;91.98;102125.56;5024917;28;20115;-64
2022/03/03 02:53:30;;;;;;;91.32;44.47;;;;;;;0.32;91.81;102119.44;5007968;28;20029;-64
2022/03/03 02:55:55;;;;;;;88.03;43.83;;;;;;;0.29;91.78;102124.59;5023841;28;20112;-64
2022/03/03 02:58:21;;;;;;;90.63;43.67;;;;;;;0.29;91.98;102124.59;5024637;28;20633;-64
2022/03/03 03:00:47;;;;;;;88.32;43.60;;;;;;;0.28;91.88;102117.66;5025030;28;20040;-62
2022/03/03 03:03:17;;;;;;;92.40;46.22;;;;;;;0.26;91.88;102120.22;5025482;28;20035;-63
2022/03/03 03:05:43;;;;;;;88.00;42.20;;;;;;;0.27;92.27;102115.88;5024076;28;20040;-63
2022/03/03 03:08:09;;;;;;;90.28;44.10;;;;;;;0.26;92.23;102115.00;5025189;28;20120;-64
2022/03/03 03:10:35;;;;;;;88.15;43.63;;;;;;;0.26;92.05;102111.50;5024409;28;20369;-64
2022/03/03 03:13:01;;;;;;;90.90;44.75;;;;;;;0.25;91.99;102109.75;5025038;28;20017;-64
2022/03/03 03:15:27;;;;;;;92.88;44.78;;;;;;;0.24;92.09;102108.00;5024938;28;20028;-64
2022/03/03 03:17:52;;;;;;;88.72;44.17;;;;;;;0.23;92.25;102108.88;5022179;28;20069;-64
2022/03/03 03:20:18;;;;;;;91.65;44.20;;;;;;;0.22;92.06;102102.75;5020117;28;20048;-64
2022/03/03 03:22:44;;;;;;;90.88;45.83;;;;;;;0.21;91.87;102097.53;5023509;28;20044;-64
2022/03/03 03:25:11;;;;;;;93.78;44.60;;;;;;;0.19;92.10;102100.13;5023705;28;20479;-64
2022/03/03 03:27:38;;;;;;;86.63;42.58;;;;;;;0.18;91.80;102092.25;5023618;28;20021;-64
2022/03/03 03:30:11;;;;;;;88.35;44.83;;;;;;;0.19;91.94;102091.41;5024463;28;20033;-64
2022/03/03 03:32:37;;;;;;;89.82;43.90;;;;;;;0.17;91.94;102090.50;5024270;28;20063;-64
2022/03/03 03:35:04;;;;;;;87.90;42.78;;;;;;;0.16;91.85;102091.38;5024423;28;20029;-64
2022/03/03 03:37:32;;;;;;;91.43;44.20;;;;;;;0.15;92.24;102087.88;5021898;28;20055;-64
2022/03/03 03:39:57;;;;;;;83.80;41.10;;;;;;;0.14;92.03;102080.91;5023774;28;20056;-64
2022/03/03 03:42:23;;;;;;;85.97;42.70;;;;;;;0.12;91.90;102080.03;5024410;28;20025;-64
2022/03/03 03:44:48;;;;;;;87.78;43.17;;;;;;;0.12;91.81;102083.47;5024027;28;20036;-64
2022/03/03 03:47:14;;;;;;;90.78;44.47;;;;;;;0.12;91.84;102096.50;5022968;28;20029;-64
2022/03/03 03:49:40;;;;;;;92.57;44.38;;;;;;;0.12;92.12;102086.09;5023041;28;20841;-64
2022/03/03 03:52:06;;;;;;;84.47;42.78;;;;;;;0.12;91.80;102090.44;5023723;28;20034;-64
2022/03/03 03:54:31;;;;;;;85.68;43.53;;;;;;;0.11;92.02;102084.34;5023951;28;20037;-64
2022/03/03 03:56:57;;;;;;;87.40;43.30;;;;;;;0.10;91.66;102090.41;5023290;28;20758;-64
2022/03/03 03:59:22;;;;;;;84.25;41.70;;;;;;;0.08;92.08;102089.50;5023153;28;20104;-64
2022/03/03 04:01:48;;;;;;;87.32;42.85;;;;;;;0.08;92.07;102094.72;5022991;28;20047;-64
2022/03/03 04:04:14;;;;;;;89.05;43.13;;;;;;;0.07;92.04;102087.75;5006445;28;20692;-63
2022/03/03 04:06:40;;;;;;;85.70;41.65;;;;;;;0.07;91.88;102095.56;5022178;28;20554;-64
2022/03/03 04:09:05;;;;;;;81.97;41.72;;;;;;;0.05;92.24;102094.63;5023011;28;20043;-64
2022/03/03 04:11:31;;;;;;;91.13;43.75;;;;;;;0.04;92.19;102092.88;5021103;28;20029;-64
2022/03/03 04:13:57;;;;;;;83.13;41.85;;;;;;;0.03;92.05;102085.94;5023508;28;20439;-64
2022/03/03 04:16:24;;;;;;;92.55;44.35;;;;;;;0.00;92.32;102085.88;5022660;28;20055;-64
2022/03/03 04:18:49;;;;;;;89.00;43.92;;;;;;;-0.01;92.31;102091.91;5023056;28;20055;-64
2022/03/03 04:21:15;;;;;;;87.50;42.47;;;;;;;-0.03;92.07;102088.41;5021289;28;20037;-64
2022/03/03 04:23:40;;;;;;;87.70;42.53;;;;;;;-0.06;91.88;102084.03;5023639;28;20041;-64
2022/03/03 04:26:06;;;;;;;91.07;44.42;;;;;;;-0.07;91.88;102078.78;5023104;28;20056;-64
2022/03/03 04:28:32;;;;;;;85.72;43.03;;;;;;;-0.10;92.01;102082.22;5016608;28;20036;-64
2022/03/03 04:30:57;;;;;;;84.50;41.58;;;;;;;-0.12;92.14;102081.31;5023423;28;20112;-64
2022/03/03 04:33:23;;;;;;;92.45;44.03;;;;;;;-0.14;92.27;102077.81;5022179;28;20433;-64
2022/03/03 04:35:48;;;;;;;89.07;43.53;;;;;;;-0.15;91.98;102074.31;5022729;28;20466;-64
2022/03/03 04:38:14;;;;;;;82.47;41.53;;;;;;;-0.17;92.05;102078.63;5020836;28;20041;-64
2022/03/03 04:40:39;;;;;;;88.22;42.03;;;;;;;-0.19;92.31;102080.31;5023219;28;20028;-64
2022/03/03 04:43:05;;;;;;;88.38;43.67;;;;;;;-0.21;92.28;102087.22;5022463;28;20545;-64
2022/03/03 04:45:30;;;;;;;84.30;43.10;;;;;;;-0.22;92.30;102082.84;5019594;28;20037;-64
2022/03/03 04:47:56;;;;;;;83.32;41.13;;;;;;;-0.24;92.24;102081.97;5023392;28;20033;-64
2022/03/03 04:50:21;;;;;;;84.53;41.60;;;;;;;-0.26;92.11;102081.06;5021189;28;20172;-64
2022/03/03 04:52:47;;;;;;;85.82;43.72;;;;;;;-0.28;92.19;102078.41;5023298;28;20061;-64
2022/03/03 04:55:12;;;;;;;87.88;43.28;;;;;;;-0.29;92.32;102081.88;5023828;28;20032;-64
2022/03/03 04:57:38;;;;;;;88.85;41.45;;;;;;;-0.30;92.30;102084.44;5021923;28;20036;-64
2022/03/03 05:00:05;;;;;;;91.05;43.08;;;;;;;-0.31;92.35;102083.56;5023057;28;20040;-64
2022/03/03 05:02:31;;;;;;;86.50;42.50;;;;;;;-0.31;92.53;102082.69;5022429;28;20757;-64
2022/03/03 05:04:56;;;;;;;88.07;42.83;;;;;;;-0.31;92.05;102080.97;5019919;28;20110;-64
2022/03/03 05:07:22;;;;;;;77.68;39.67;;;;;;;-0.32;92.18;102088.75;5023321;28;20383;-64
2022/03/03 05:09:47;;;;;;;84.72;42.45;;;;;;;-0.32;92.15;102089.59;5020607;28;20037;-64
2022/03/03 05:12:13;;;;;;;84.07;42.25;;;;;;;-0.32;92.13;102081.78;5019483;28;20092;-64
2022/03/03 05:14:38;;;;;;;87.28;42.83;;;;;;;-0.32;92.25;102078.34;5022108;28;20029;-64
2022/03/03 05:17:04;;;;;;;81.32;41.47;;;;;;;-0.32;92.31;102078.34;5022525;28;20112;-64
2022/03/03 05:19:29;;;;;;;85.90;42.90;;;;;;;-0.31;92.22;102078.38;5022068;28;20035;-64
2022/03/03 05:21:55;;;;;;;82.63;40.70;;;;;;;-0.31;92.10;102077.47;5022691;28;20033;-64
2022/03/03 05:24:20;;;;;;;78.68;39.95;;;;;;;-0.30;92.04;102077.53;5025769;28;20128;-64
2022/03/03 05:26:46;;;;;;;80.60;41.45;;;;;;;-0.28;92.36;102074.91;5021262;28;20368;-64
2022/03/03 05:29:11;;;;;;;80.40;40.28;;;;;;;-0.28;92.37;102065.41;5022655;28;20025;-64
2022/03/03 05:31:37;;;;;;;76.85;39.88;;;;;;;-0.26;92.17;102072.34;5022963;28;20056;-64
2022/03/03 05:34:03;;;;;;;74.57;39.90;;;;;;;-0.25;92.37;102067.19;5022778;28;20033;-64
2022/03/03 05:36:29;;;;;;;79.55;40.55;;;;;;;-0.25;92.34;102067.19;5022341;28;20041;-64
2022/03/03 05:38:57;;;;;;;70.55;38.20;;;;;;;-0.25;92.23;102068.91;5015479;28;21311;-64
2022/03/03 05:41:23;;;;;;;80.28;39.60;;;;;;;-0.24;92.23;102073.25;5022699;28;20048;-64
2022/03/03 05:43:49;;;;;;;80.30;39.03;;;;;;;-0.24;92.33;102068.03;5022193;28;20033;-64
2022/03/03 05:46:15;;;;;;;70.95;38.78;;;;;;;-0.23;91.95;102067.22;5023424;28;20167;-64
2022/03/03 05:48:40;;;;;;;72.95;37.45;;;;;;;-0.22;92.10;102068.97;5025911;28;20115;-64
2022/03/03 05:51:06;;;;;;;76.10;39.45;;;;;;;-0.24;92.23;102071.53;5026583;28;20037;-64
2022/03/03 05:53:32;;;;;;;73.82;39.67;;;;;;;-0.24;92.07;102071.53;5025365;28;20068;-64
2022/03/03 05:56:06;;;;;;;75.38;39.05;;;;;;;-0.23;91.83;102078.50;5026335;28;20033;-64
2022/03/03 05:58:49;;;;;;;73.18;39.67;;;;;;;-0.24;92.18;102075.84;5023537;28;20499;-64
2022/03/03 06:01:15;;;;;;;71.87;37.60;;;;;;;-0.25;92.19;102075.00;5026986;28;20029;-64
2022/03/03 06:03:41;;;;;;;79.22;39.78;;;;;;;-0.26;92.00;102073.25;5027689;28;20025;-64
2022/03/03 06:06:22;;;;;;;70.22;39.35;;;;;;;-0.27;91.89;102066.28;5024419;28;20118;-64
2022/03/03 06:09:09;;;;;;;78.50;40.40;;;;;;;-0.28;91.73;102070.59;5024678;28;20047;-65
2022/03/03 06:11:38;;;;;;;69.65;37.17;;;;;;;-0.26;91.98;102072.34;5026558;28;20083;-64
2022/03/03 06:14:08;;;;;;;68.45;37.47;;;;;;;-0.29;91.75;102071.47;5024072;28;20109;-65
2022/03/03 06:16:35;;;;;;;68.95;37.10;;;;;;;-0.29;91.75;102074.06;5025432;28;20037;-64
2022/03/03 06:19:02;;;;;;;65.65;35.33;;;;;;;-0.30;91.66;102079.22;5024423;28;20367;-64
2022/03/03 06:21:28;;;;;;;67.03;36.95;;;;;;;-0.31;91.74;102073.16;5023937;28;20120;-64
2022/03/03 06:23:53;;;;;;;71.85;37.90;;;;;;;-0.30;91.60;102076.63;5025872;28;20036;-63
2022/03/03 06:26:20;;;;;;;71.00;38.00;;;;;;;-0.31;91.61;102070.56;5024660;28;20029;-63
2022/03/03 06:28:46;;;;;;;74.35;37.85;;;;;;;-0.30;91.67;102081.84;5025250;28;20013;-63
2022/03/03 06:31:12;;;;;;;67.82;36.72;;;;;;;-0.31;91.38;102086.19;5025290;28;20033;-63
2022/03/03 06:33:38;;;;;;;73.38;37.65;;;;;;;-0.30;91.60;102087.03;5025970;28;20032;-63
2022/03/03 06:36:04;;;;;;;70.50;38.40;;;;;;;-0.31;91.31;102090.50;5025271;28;20025;-64
2022/03/03 06:38:30;;;;;;;72.70;39.60;;;;;;;-0.30;91.51;102092.25;5024201;28;20045;-63
2022/03/03 06:40:57;;;;;;;71.40;37.13;;;;;;;-0.30;91.44;102102.66;5023111;28;20511;-63
2022/03/03 06:43:29;;;;;;;73.43;36.50;;;;;;;-0.29;91.18;102096.59;5026135;28;20065;-63
2022/03/03 06:45:58;;;;;;;68.03;36.90;;;;;;;-0.30;91.18;102092.25;5024155;28;20322;-63
2022/03/03 06:48:24;;;;;;;72.32;37.70;;;;;;;-0.29;91.32;102094.88;5024975;28;20057;-63
2022/03/03 06:50:52;;;;;;;66.82;35.90;;;;;;;-0.27;91.10;102097.53;5025572;28;20586;-63
2022/03/03 06:53:24;;;;;;;66.18;36.17;;;;;;;-0.28;90.95;102095.75;5028487;28;20112;-63
2022/03/03 06:55:50;;;;;;;66.55;37.65;;;;;;;-0.28;91.17;102096.63;5022876;28;20472;-63
2022/03/03 06:58:17;;;;;;;66.60;36.88;;;;;;;-0.26;91.17;102103.59;5023398;28;20430;-64
2022/03/03 07:00:48;;;;;;;66.78;35.70;;;;;;;-0.25;91.14;102095.81;5026154;28;20270;-64
2022/03/03 07:03:14;;;;;;;67.95;36.13;;;;;;;-0.24;91.01;102102.78;5023006;28;20067;-64
2022/03/03 07:05:40;;;;;;;66.50;36.58;;;;;;;-0.22;91.22;102095.88;5024159;28;20033;-64
2022/03/03 07:08:05;;;;;;;65.97;36.03;;;;;;;-0.20;91.49;102102.00;5025388;28;20290;-64
2022/03/03 07:10:32;;;;;;;69.95;36.67;;;;;;;-0.18;91.05;102102.91;5024269;28;20028;-64
2022/03/03 07:12:58;;;;;;;61.50;34.92;;;;;;;-0.15;91.02;102099.47;5022345;28;20140;-64
2022/03/03 07:15:25;;;;;;;65.85;35.28;;;;;;;-0.13;91.07;102102.13;5024754;28;20029;-64
2022/03/03 07:18:02;;;;;;;64.20;35.40;;;;;;;-0.10;90.83;102107.38;5022174;28;20119;-64
2022/03/03 07:20:49;;;;;;;65.78;35.83;;;;;;;-0.07;91.17;102110.03;5022128;28;20037;-64
2022/03/03 07:23:28;;;;;;;58.47;32.85;;;;;;;-0.05;90.96;102111.81;5023473;28;20048;-65
2022/03/03 07:25:56;;;;;;;61.88;34.40;;;;;;;0.00;90.96;102106.72;5023171;28;20069;-63
2022/03/03 07:28:22;;;;;;;60.13;34.05;;;;;;;0.05;90.83;102110.25;5023625;28;20049;-63
2022/03/03 07:30:49;;;;;;;65.60;34.50;;;;;;;0.08;90.75;102105.13;5024551;28;20025;-63
2022/03/03 07:33:56;;;;;;;57.30;32.83;;;;;;;0.12;90.68;102114.75;5024808;28;20037;-63
2022/03/03 07:36:28;;;;;;;60.90;34.05;;;;;;;0.17;90.61;102117.44;4980897;28;20049;-63
2022/03/03 07:38:57;;;;;;;62.40;33.60;;;;;;;0.20;91.03;102125.31;5016581;28;20056;-64
2022/03/03 07:41:25;;;;;;;61.40;34.20;;;;;;;0.23;90.59;102127.09;5010186;28;21667;-63
2022/03/03 07:43:51;;;;;;;63.85;33.47;;;;;;;0.24;90.28;102123.63;5023054;28;20065;-63
2022/03/03 07:46:16;;;;;;;55.05;32.50;;;;;;;0.28;90.62;102127.19;5025544;28;20741;-64
2022/03/03 07:48:44;;;;;;;60.50;33.85;;;;;;;0.30;90.35;102122.84;5021229;28;20044;-64
2022/03/03 07:51:10;;;;;;;59.25;33.70;;;;;;;0.34;90.18;102135.09;5020451;28;20495;-64
2022/03/03 07:53:35;;;;;;;57.47;32.05;;;;;;;0.36;90.14;102131.69;5023990;28;20041;-63
2022/03/03 07:56:03;;;;;;;60.75;33.60;;;;;;;0.38;90.39;102129.97;5022007;28;21381;-63
2022/03/03 07:58:32;;;;;;;53.05;31.05;;;;;;;0.41;90.23;102123.94;5020844;28;20039;-63
2022/03/03 08:01:00;;;;;;;57.58;32.88;;;;;;;0.44;89.96;102117.91;5023375;28;20033;-63
2022/03/03 08:03:25;;;;;;;54.65;32.42;;;;;;;0.46;90.00;102110.97;5020341;28;20036;-63
2022/03/03 08:05:56;;;;;;;57.80;32.03;;;;;;;0.50;89.96;102118.00;5023763;28;20044;-63
2022/03/03 08:08:25;;;;;;;56.13;32.50;;;;;;;0.55;89.73;102126.78;5022823;28;20034;-63
2022/03/03 08:10:59;;;;;;;57.92;32.55;;;;;;;0.59;90.08;102118.16;5022157;28;20292;-63
2022/03/03 08:13:27;;;;;;;54.42;30.65;;;;;;;0.62;90.13;102115.63;5020005;28;20681;-63
2022/03/03 08:15:53;;;;;;;54.80;31.80;;;;;;;0.68;89.92;102117.44;5017922;28;20499;-63
2022/03/03 08:18:19;;;;;;;55.95;31.25;;;;;;;0.72;89.77;102113.16;5022136;28;20044;-63
2022/03/03 08:20:45;;;;;;;49.83;29.35;;;;;;;0.77;90.01;102106.28;5021362;28;20033;-63
2022/03/03 08:23:11;;;;;;;51.95;30.27;;;;;;;0.81;89.67;102110.66;5023030;28;20522;-64
2022/03/03 08:25:36;;;;;;;50.35;30.35;;;;;;;0.87;89.72;102112.53;5020800;28;20032;-64
2022/03/03 08:28:03;;;;;;;53.35;31.23;;;;;;;0.92;89.45;102114.34;5021850;28;21457;-64
2022/03/03 08:30:29;;;;;;;54.00;30.40;;;;;;;0.97;89.83;102123.97;5024205;28;20051;-64
2022/03/03 08:33:18;;;;;;;50.58;29.52;;;;;;;0.99;89.51;102120.53;5022573;28;20107;-64
2022/03/03 08:35:50;;;;;;;49.25;28.45;;;;;;;1.05;89.65;102122.34;5020460;28;20033;-64
2022/03/03 08:38:17;;;;;;;;;;;;;;;1.10;89.09;102125.91;5004493;28;20208;-64
2022/03/03 08:40:45;;;;;;;50.40;28.27;;;;;;;1.13;89.35;102120.72;5021594;28;20604;-64
2022/03/03 08:43:13;;;;;;;48.80;29.90;;;;;;;1.18;89.29;102119.06;5027909;28;20601;-64
2022/03/03 08:45:39;;;;;;;49.17;30.13;;;;;;;1.24;89.31;102120.00;5020863;28;20025;-64
2022/03/03 08:48:07;;;;;;;49.03;30.00;;;;;;;1.27;89.01;102118.31;5021504;28;20053;-64
2022/03/03 08:50:35;;;;;;;46.47;29.00;;;;;;;1.33;88.92;102117.53;5022272;28;20086;-64
2022/03/03 08:53:03;;;;;;;47.80;29.20;;;;;;;1.38;89.14;102118.47;5023073;28;20496;-65
2022/03/03 08:55:29;;;;;;;47.35;29.13;;;;;;;1.43;89.00;102135.06;5016534;28;20200;-64
2022/03/03 08:57:55;;;;;;;43.85;27.27;;;;;;;1.48;88.95;102128.16;5019305;28;20037;-64
2022/03/03 09:00:21;;;;;;;47.95;29.35;;;;;;;1.55;88.85;102130.84;5019887;28;20029;-64
2022/03/03 09:02:47;;;;;;;47.10;28.42;;;;;;;1.60;88.79;102129.19;5019771;28;20056;-64
2022/03/03 09:05:13;;;;;;;49.10;29.15;;;;;;;1.65;88.49;102132.72;5020705;28;21505;-64
2022/03/03 09:07:39;;;;;;;43.60;27.25;;;;;;;1.71;88.35;102126.69;5021705;28;20044;-64
2022/03/03 09:10:05;;;;;;;39.75;26.27;;;;;;;1.77;88.41;102124.16;5021236;28;20025;-63
2022/03/03 09:12:31;;;;;;;43.75;26.48;;;;;;;1.85;88.55;102132.09;5020909;28;20033;-63
2022/03/03 09:14:57;;;;;;;40.10;26.42;;;;;;;1.90;88.31;102131.28;5020329;28;21608;-63
2022/03/03 09:17:22;;;;;;;41.92;25.27;;;;;;;1.98;88.31;102134.00;5021883;28;20087;-63
2022/03/03 09:19:48;;;;;;;41.78;26.52;;;;;;;2.03;88.41;102137.50;5021252;28;20470;-64
2022/03/03 09:22:13;;;;;;;43.90;26.25;;;;;;;2.11;88.23;102126.25;5024358;28;20060;-63
2022/03/03 09:24:39;;;;;;;39.08;26.35;;;;;;;2.17;87.93;102124.59;5023261;28;20048;-63
2022/03/03 09:27:04;;;;;;;39.25;24.83;;;;;;;2.24;87.93;102135.97;5024950;28;21355;-64
2022/03/03 09:29:33;;;;;;;38.70;24.10;;;;;;;2.33;87.67;102124.75;5024724;28;20034;-64
2022/03/03 09:32:00;;;;;;;39.45;25.02;;;;;;;2.40;87.44;102123.09;5026319;28;20036;-64
2022/03/03 09:34:26;;;;;;;43.30;26.02;;;;;;;2.47;87.15;102127.50;5040104;28;20525;-64
2022/03/03 09:36:52;;;;;;;39.10;24.67;;;;;;;2.54;87.38;102123.19;5021643;28;20033;-64
2022/03/03 09:39:17;;;;;;;41.92;24.80;;;;;;;2.60;87.05;102127.63;5022949;28;20056;-64
2022/03/03 09:41:43;;;;;;;38.80;24.17;;;;;;;2.66;86.97;102122.44;5024632;28;20036;-64
2022/03/03 09:44:08;;;;;;;37.17;25.02;;;;;;;2.73;86.99;102121.63;5022171;28;20581;-64
2022/03/03 09:46:36;;;;;;;39.03;24.90;;;;;;;2.79;86.70;102124.25;5026417;28;20055;-64
2022/03/03 09:49:06;;;;;;;37.05;24.30;;;;;;;2.87;86.79;102115.63;5025475;28;20617;-64
2022/03/03 09:51:31;;;;;;;35.47;24.25;;;;;;;2.93;86.19;102118.25;5024917;28;20148;-64
2022/03/03 09:53:57;;;;;;;34.30;22.50;;;;;;;2.98;86.45;102122.66;5023714;28;20043;-64
2022/03/03 09:56:23;;;;;;;36.45;23.23;;;;;;;3.06;85.89;102112.22;5025460;28;20411;-66
2022/03/03 09:58:48;;;;;;;34.78;23.20;;;;;;;3.11;85.78;102115.75;5023239;28;20041;-64
2022/03/03 10:01:14;;;;;;;38.17;24.10;;;;;;;3.19;85.76;102109.69;5024393;28;20574;-64
2022/03/03 10:03:41;;;;;;;37.58;23.80;;;;;;;3.25;85.45;102114.97;5025606;28;20033;-65
2022/03/03 10:06:06;;;;;;;36.55;23.98;;;;;;;3.31;84.98;102104.53;5024111;28;21888;-64
2022/03/03 10:08:32;;;;;;;34.88;23.15;;;;;;;3.36;84.86;102105.44;5022817;28;20179;-65
2022/03/03 10:11:01;;;;;;;35.03;23.35;;;;;;;3.44;84.80;102104.59;5025224;28;21029;-65
2022/03/03 10:13:27;;;;;;;33.83;22.23;;;;;;;3.50;84.89;102110.72;5025074;28;20045;-65
2022/03/03 10:15:54;;;;;;;33.00;23.45;;;;;;;3.56;84.69;102102.03;5024996;28;20033;-65
2022/03/03 10:18:21;;;;;;;32.80;21.40;;;;;;;3.62;84.50;102107.31;5025386;28;20033;-65
2022/03/03 10:21:02;;;;;;;31.80;22.45;;;;;;;3.70;84.29;102109.06;5024501;28;20484;-65
2022/03/03 10:23:29;;;;;;;31.17;22.00;;;;;;;3.75;83.98;102100.34;5024516;28;20034;-65
2022/03/03 10:25:57;;;;;;;34.00;22.40;;;;;;;3.81;83.64;102091.63;5024893;28;20364;-65
2022/03/03 10:28:28;;;;;;;32.35;21.50;;;;;;;3.85;83.92;102096.00;5024613;28;20124;-65
2022/03/03 10:31:12;;;;;;;32.40;21.65;;;;;;;3.92;83.73;102089.06;5025195;28;20516;-66
2022/03/03 10:33:44;;;;;;;30.17;20.25;;;;;;;3.98;84.04;102096.06;5023972;28;20037;-65
2022/03/03 10:36:19;;;;;;;32.53;22.08;;;;;;;4.03;83.43;102094.31;5024226;28;20902;-65
2022/03/03 10:38:57;;;;;;;30.95;21.08;;;;;;;4.08;83.18;102096.06;5024258;28;20055;-66
2022/03/03 10:41:32;;;;;;;33.65;20.73;;;;;;;4.15;83.34;102096.09;5023267;28;20094;-65
2022/03/03 10:44:01;;;;;;;27.55;20.15;;;;;;;4.20;82.57;102103.06;5025779;28;20037;-65
2022/03/03 10:46:27;;;;;;;30.85;19.98;;;;;;;4.27;82.82;102105.72;5022786;28;20040;-65
2022/03/03 10:48:52;;;;;;;29.75;20.27;;;;;;;4.33;82.52;102113.56;5024354;28;20021;-65
2022/03/03 10:51:19;;;;;;;29.35;20.38;;;;;;;4.38;82.43;102108.34;5024817;28;20837;-65
2022/03/03 10:53:45;;;;;;;28.85;19.30;;;;;;;4.45;81.58;102120.56;5024056;28;20718;-65
2022/03/03 10:56:15;;;;;;;29.05;19.58;;;;;;;4.51;81.21;102106.63;5024859;28;20040;-65
2022/03/03 10:58:57;;;;;;;25.33;18.58;;;;;;;4.58;81.31;102117.09;5024272;28;21517;-65
2022/03/03 11:01:30;;;;;;;27.30;18.77;;;;;;;4.63;80.56;102111.84;5025078;28;20056;-65
2022/03/03 11:03:56;;;;;;;24.45;17.92;;;;;;;4.69;81.15;102101.34;5023562;28;20041;-66
2022/03/03 11:06:30;;;;;;;28.27;19.50;;;;;;;4.73;80.87;102105.72;5024225;28;20048;-65
2022/03/03 11:08:57;;;;;;;28.92;19.10;;;;;;;4.81;80.44;102104.84;5024028;28;20033;-65
2022/03/03 11:11:24;;;;;;;28.77;19.77;;;;;;;4.85;80.60;102101.34;5023393;28;20037;-65
2022/03/03 11:13:51;;;;;;;25.73;17.65;;;;;;;4.89;80.23;102097.81;5022707;28;20033;-65